Time;durP1;ratioP1;P1;durP2;ratioP2;P2;SDS_P1;SDS_P2;PMS_P1;PMS_P2;Temp;Humidity;BMP_temperature;BMP_pressure;BME280_temperature;BME280_humidity;BME280_pressure;Samples;Min_cycle;Max_cycle;Signal;HPM_P1;HPM_P2
2021/09/15 00:00:49;;;;;;;10.85;9.7;;;;;;;16.25;84.17969;95108.59;;;;
2021/09/15 00:01:50;;;;;;;10.85;9.7;;;;;;;16.25;84.17969;95108.59;;;;
2021/09/15 00:02:51;;;;;;;10.85;9.7;;;;;;;16.25;84.17969;95108.59;;;;
2021/09/15 00:03:51;;;;;;;10.85;9.7;;;;;;;16.25;84.17969;95108.59;;;;
2021/09/15 00:04:51;;;;;;;10.7;9.250001;;;;;;;16.41;84.38281;95109.36;;;;
2021/09/15 00:05:52;;;;;;;10.7;9.250001;;;;;;;16.41;84.38281;95109.36;;;;
2021/09/15 00:06:52;;;;;;;10.7;9.250001;;;;;;;16.41;84.38281;95109.36;;;;
2021/09/15 00:07:53;;;;;;;10.7;9.250001;;;;;;;16.41;84.38281;95109.36;;;;
2021/09/15 00:08:53;;;;;;;10.7;9.250001;;;;;;;16.41;84.38281;95109.36;;;;
2021/09/15 00:09:54;;;;;;;10.7;9.250001;;;;;;;16.41;84.38281;95109.36;;;;
2021/09/15 00:10:55;;;;;;;10.7;9.250001;;;;;;;16.41;84.38281;95109.36;;;;
2021/09/15 00:11:55;;;;;;;10.7;9.250001;;;;;;;16.41;84.38281;95109.36;;;;
2021/09/15 00:12:56;;;;;;;10.7;9.250001;;;;;;;16.41;84.38281;95109.36;;;;
2021/09/15 00:13:56;;;;;;;10.7;9.250001;;;;;;;16.41;84.38281;95109.36;;;;
2021/09/15 00:14:57;;;;;;;10.7;9.250001;;;;;;;16.41;84.38281;95109.36;;;;
2021/09/15 00:15:58;;;;;;;10.35;9.400001;;;;;;;16.36;84.63281;95098.07;;;;
2021/09/15 00:16:58;;;;;;;10.35;9.400001;;;;;;;16.36;84.63281;95098.07;;;;
2021/09/15 00:17:59;;;;;;;10.35;9.400001;;;;;;;16.36;84.63281;95098.07;;;;
2021/09/15 00:18:59;;;;;;;10.35;9.400001;;;;;;;16.36;84.63281;95098.07;;;;
2021/09/15 00:20:00;;;;;;;10.35;9.400001;;;;;;;16.36;84.63281;95098.07;;;;
2021/09/15 00:21:00;;;;;;;10.35;9.400001;;;;;;;16.36;84.63281;95098.07;;;;
2021/09/15 00:22:01;;;;;;;10.35;9.400001;;;;;;;16.36;84.63281;95098.07;;;;
2021/09/15 00:23:02;;;;;;;10.35;9.400001;;;;;;;16.36;84.63281;95098.07;;;;
2021/09/15 00:24:02;;;;;;;10.35;9.400001;;;;;;;16.36;84.63281;95098.07;;;;
2021/09/15 00:25:03;;;;;;;10.35;9.400001;;;;;;;16.36;84.63281;95098.07;;;;
2021/09/15 00:26:04;;;;;;;10.1;9.149999;;;;;;;16.2;85.19629;95091.85;;;;
2021/09/15 00:27:05;;;;;;;10.1;9.149999;;;;;;;16.2;85.19629;95091.85;;;;
2021/09/15 00:28:05;;;;;;;10.1;9.149999;;;;;;;16.2;85.19629;95091.85;;;;
2021/09/15 00:29:06;;;;;;;10.1;9.149999;;;;;;;16.2;85.19629;95091.85;;;;
2021/09/15 00:30:07;;;;;;;10.1;9.149999;;;;;;;16.2;85.19629;95091.85;;;;
2021/09/15 00:31:09;;;;;;;10.1;9.149999;;;;;;;16.2;85.19629;95091.85;;;;
2021/09/15 00:32:09;;;;;;;10.1;9.149999;;;;;;;16.2;85.19629;95091.85;;;;
2021/09/15 00:33:10;;;;;;;10.1;9.149999;;;;;;;16.2;85.19629;95091.85;;;;
2021/09/15 00:34:10;;;;;;;10.1;9.149999;;;;;;;16.2;85.19629;95091.85;;;;
2021/09/15 00:35:11;;;;;;;10.1;9.149999;;;;;;;16.2;85.19629;95091.85;;;;
2021/09/15 00:36:12;;;;;;;10.1;9.149999;;;;;;;16.2;85.19629;95091.85;;;;
2021/09/15 00:37:12;;;;;;;9.599998;8.7;;;;;;;16.12;85.55859;95092;;;;
2021/09/15 00:38:13;;;;;;;9.599998;8.7;;;;;;;16.12;85.55859;95092;;;;
2021/09/15 00:39:13;;;;;;;9.599998;8.7;;;;;;;16.12;85.55859;95092;;;;
2021/09/15 00:40:14;;;;;;;9.599998;8.7;;;;;;;16.12;85.55859;95092;;;;
2021/09/15 00:41:14;;;;;;;9.599998;8.7;;;;;;;16.12;85.55859;95092;;;;
2021/09/15 00:42:15;;;;;;;9.599998;8.7;;;;;;;16.12;85.55859;95092;;;;
2021/09/15 00:43:15;;;;;;;9.599998;8.7;;;;;;;16.12;85.55859;95092;;;;
2021/09/15 00:44:16;;;;;;;9.599998;8.7;;;;;;;16.12;85.55859;95092;;;;
2021/09/15 00:45:16;;;;;;;9.599998;8.7;;;;;;;16.12;85.55859;95092;;;;
2021/09/15 00:46:17;;;;;;;9.599998;8.7;;;;;;;16.12;85.55859;95092;;;;
2021/09/15 00:47:17;;;;;;;10.85;9.450001;;;;;;;15.95;85.95801;95076.48;;;;
2021/09/15 00:48:18;;;;;;;10.85;9.450001;;;;;;;15.95;85.95801;95076.48;;;;
2021/09/15 00:49:18;;;;;;;10.85;9.450001;;;;;;;15.95;85.95801;95076.48;;;;
2021/09/15 00:50:19;;;;;;;10.85;9.450001;;;;;;;15.95;85.95801;95076.48;;;;
2021/09/15 00:51:20;;;;;;;10.85;9.450001;;;;;;;15.95;85.95801;95076.48;;;;
2021/09/15 00:52:20;;;;;;;10.85;9.450001;;;;;;;15.95;85.95801;95076.48;;;;
2021/09/15 00:53:22;;;;;;;10.85;9.450001;;;;;;;15.95;85.95801;95076.48;;;;
2021/09/15 00:54:23;;;;;;;10.85;9.450001;;;;;;;15.95;85.95801;95076.48;;;;
2021/09/15 00:55:23;;;;;;;10.85;9.450001;;;;;;;15.95;85.95801;95076.48;;;;
2021/09/15 00:56:24;;;;;;;10.85;9.450001;;;;;;;15.95;85.95801;95076.48;;;;
2021/09/15 00:57:26;;;;;;;10.85;9.450001;;;;;;;15.95;85.95801;95076.48;;;;
2021/09/15 00:58:27;;;;;;;10.85;9.750001;;;;;;;15.9;86.43457;95072.41;;;;
2021/09/15 00:59:27;;;;;;;10.85;9.750001;;;;;;;15.9;86.43457;95072.41;;;;
2021/09/15 01:00:28;;;;;;;10.85;9.750001;;;;;;;15.9;86.43457;95072.41;;;;
2021/09/15 01:01:28;;;;;;;10.85;9.750001;;;;;;;15.9;86.43457;95072.41;;;;
2021/09/15 01:02:29;;;;;;;10.85;9.750001;;;;;;;15.9;86.43457;95072.41;;;;
2021/09/15 01:03:31;;;;;;;10.85;9.750001;;;;;;;15.9;86.43457;95072.41;;;;
2021/09/15 01:04:31;;;;;;;10.85;9.750001;;;;;;;15.9;86.43457;95072.41;;;;
2021/09/15 01:05:32;;;;;;;10.85;9.750001;;;;;;;15.9;86.43457;95072.41;;;;
2021/09/15 01:06:33;;;;;;;10.85;9.750001;;;;;;;15.9;86.43457;95072.41;;;;
2021/09/15 01:07:34;;;;;;;10.85;9.750001;;;;;;;15.9;86.43457;95072.41;;;;
2021/09/15 01:08:35;;;;;;;10.85;9.799998;;;;;;;15.86;86.82617;95084.4;;;;
2021/09/15 01:09:35;;;;;;;10.85;9.799998;;;;;;;15.86;86.82617;95084.4;;;;
2021/09/15 01:10:37;;;;;;;10.85;9.799998;;;;;;;15.86;86.82617;95084.4;;;;
2021/09/15 01:11:38;;;;;;;10.85;9.799998;;;;;;;15.86;86.82617;95084.4;;;;
2021/09/15 01:12:39;;;;;;;10.85;9.799998;;;;;;;15.86;86.82617;95084.4;;;;
2021/09/15 01:13:39;;;;;;;10.85;9.799998;;;;;;;15.86;86.82617;95084.4;;;;
2021/09/15 01:14:40;;;;;;;10.85;9.799998;;;;;;;15.86;86.82617;95084.4;;;;
2021/09/15 01:15:41;;;;;;;10.85;9.799998;;;;;;;15.86;86.82617;95084.4;;;;
2021/09/15 01:16:42;;;;;;;10.85;9.799998;;;;;;;15.86;86.82617;95084.4;;;;
2021/09/15 01:17:50;;;;;;;10.85;9.799998;;;;;;;15.86;86.82617;95084.4;;;;
2021/09/15 01:18:51;;;;;;;10.85;9.799998;;;;;;;15.86;86.82617;95084.4;;;;
2021/09/15 01:19:51;;;;;;;10.65;9.65;;;;;;;15.89;87.14648;95089.7;;;;
2021/09/15 01:20:52;;;;;;;10.65;9.65;;;;;;;15.89;87.14648;95089.7;;;;
2021/09/15 01:21:53;;;;;;;10.65;9.65;;;;;;;15.89;87.14648;95089.7;;;;
2021/09/15 01:22:54;;;;;;;10.65;9.65;;;;;;;15.89;87.14648;95089.7;;;;
2021/09/15 01:23:54;;;;;;;10.65;9.65;;;;;;;15.89;87.14648;95089.7;;;;
2021/09/15 01:24:55;;;;;;;10.65;9.65;;;;;;;15.89;87.14648;95089.7;;;;
2021/09/15 01:25:55;;;;;;;10.65;9.65;;;;;;;15.89;87.14648;95089.7;;;;
2021/09/15 01:26:56;;;;;;;10.65;9.65;;;;;;;15.89;87.14648;95089.7;;;;
2021/09/15 01:27:58;;;;;;;10.65;9.65;;;;;;;15.89;87.14648;95089.7;;;;
2021/09/15 01:28:58;;;;;;;10.65;9.65;;;;;;;15.89;87.14648;95089.7;;;;
2021/09/15 01:29:59;;;;;;;11.25;10.1;;;;;;;15.82;87.43164;95074.31;;;;
2021/09/15 01:30:59;;;;;;;11.25;10.1;;;;;;;15.82;87.43164;95074.31;;;;
2021/09/15 01:32:00;;;;;;;11.25;10.1;;;;;;;15.82;87.43164;95074.31;;;;
2021/09/15 01:33:03;;;;;;;11.25;10.1;;;;;;;15.82;87.43164;95074.31;;;;
2021/09/15 01:34:03;;;;;;;11.25;10.1;;;;;;;15.82;87.43164;95074.31;;;;
2021/09/15 01:35:04;;;;;;;11.25;10.1;;;;;;;15.82;87.43164;95074.31;;;;
2021/09/15 01:36:05;;;;;;;11.25;10.1;;;;;;;15.82;87.43164;95074.31;;;;
2021/09/15 01:37:06;;;;;;;11.25;10.1;;;;;;;15.82;87.43164;95074.31;;;;
2021/09/15 01:38:08;;;;;;;11.25;10.1;;;;;;;15.82;87.43164;95074.31;;;;
2021/09/15 01:39:09;;;;;;;11.25;10.1;;;;;;;15.82;87.43164;95074.31;;;;
2021/09/15 01:40:09;;;;;;;11.25;10.1;;;;;;;15.82;87.43164;95074.31;;;;
2021/09/15 01:41:11;;;;;;;11;10;;;;;;;15.66;87.95215;95071.2;;;;
2021/09/15 01:42:12;;;;;;;11;10;;;;;;;15.66;87.95215;95071.2;;;;
2021/09/15 01:43:12;;;;;;;11;10;;;;;;;15.66;87.95215;95071.2;;;;
2021/09/15 01:44:13;;;;;;;11;10;;;;;;;15.66;87.95215;95071.2;;;;
2021/09/15 01:45:13;;;;;;;11;10;;;;;;;15.66;87.95215;95071.2;;;;
2021/09/15 01:46:14;;;;;;;11;10;;;;;;;15.66;87.95215;95071.2;;;;
2021/09/15 01:47:14;;;;;;;11;10;;;;;;;15.66;87.95215;95071.2;;;;
2021/09/15 01:48:17;;;;;;;11;10;;;;;;;15.66;87.95215;95071.2;;;;
2021/09/15 01:49:19;;;;;;;11;10;;;;;;;15.66;87.95215;95071.2;;;;
2021/09/15 01:50:19;;;;;;;11;10;;;;;;;15.66;87.95215;95071.2;;;;
2021/09/15 01:51:20;;;;;;;10.9;9.9;;;;;;;15.53;88.33691;95065.34;;;;
2021/09/15 01:52:20;;;;;;;10.9;9.9;;;;;;;15.53;88.33691;95065.34;;;;
2021/09/15 01:53:21;;;;;;;10.9;9.9;;;;;;;15.53;88.33691;95065.34;;;;
2021/09/15 01:54:21;;;;;;;10.9;9.9;;;;;;;15.53;88.33691;95065.34;;;;
2021/09/15 01:55:22;;;;;;;10.9;9.9;;;;;;;15.53;88.33691;95065.34;;;;
2021/09/15 01:56:24;;;;;;;10.9;9.9;;;;;;;15.53;88.33691;95065.34;;;;
2021/09/15 01:57:24;;;;;;;10.9;9.9;;;;;;;15.53;88.33691;95065.34;;;;
2021/09/15 01:58:25;;;;;;;10.9;9.9;;;;;;;15.53;88.33691;95065.34;;;;
2021/09/15 01:59:25;;;;;;;10.9;9.9;;;;;;;15.53;88.33691;95065.34;;;;
2021/09/15 02:00:26;;;;;;;10.9;9.9;;;;;;;15.53;88.33691;95065.34;;;;
2021/09/15 02:01:26;;;;;;;10.9;9.9;;;;;;;15.53;88.33691;95065.34;;;;
2021/09/15 02:02:27;;;;;;;10.5;9.450002;;;;;;;15.34;88.75879;95059.32;;;;
2021/09/15 02:03:27;;;;;;;10.5;9.450002;;;;;;;15.34;88.75879;95059.32;;;;
2021/09/15 02:04:28;;;;;;;10.5;9.450002;;;;;;;15.34;88.75879;95059.32;;;;
2021/09/15 02:05:29;;;;;;;10.5;9.450002;;;;;;;15.34;88.75879;95059.32;;;;
2021/09/15 02:06:30;;;;;;;10.5;9.450002;;;;;;;15.34;88.75879;95059.32;;;;
2021/09/15 02:07:31;;;;;;;10.5;9.450002;;;;;;;15.34;88.75879;95059.32;;;;
2021/09/15 02:08:31;;;;;;;10.5;9.450002;;;;;;;15.34;88.75879;95059.32;;;;
2021/09/15 02:09:31;;;;;;;10.5;9.450002;;;;;;;15.34;88.75879;95059.32;;;;
2021/09/15 02:10:32;;;;;;;10.5;9.450002;;;;;;;15.34;88.75879;95059.32;;;;
2021/09/15 02:11:33;;;;;;;10.5;9.450002;;;;;;;15.34;88.75879;95059.32;;;;
2021/09/15 02:12:35;;;;;;;10.25;9.35;;;;;;;15.14;89.34375;95058.34;;;;
2021/09/15 02:13:36;;;;;;;10.25;9.35;;;;;;;15.14;89.34375;95058.34;;;;
2021/09/15 02:14:36;;;;;;;10.25;9.35;;;;;;;15.14;89.34375;95058.34;;;;
2021/09/15 02:15:37;;;;;;;10.25;9.35;;;;;;;15.14;89.34375;95058.34;;;;
2021/09/15 02:16:37;;;;;;;10.25;9.35;;;;;;;15.14;89.34375;95058.34;;;;
2021/09/15 02:17:38;;;;;;;10.25;9.35;;;;;;;15.14;89.34375;95058.34;;;;
2021/09/15 02:18:39;;;;;;;10.25;9.35;;;;;;;15.14;89.34375;95058.34;;;;
2021/09/15 02:19:40;;;;;;;10.25;9.35;;;;;;;15.14;89.34375;95058.34;;;;
2021/09/15 02:20:40;;;;;;;10.25;9.35;;;;;;;15.14;89.34375;95058.34;;;;
2021/09/15 02:21:41;;;;;;;10.25;9.35;;;;;;;15.14;89.34375;95058.34;;;;
2021/09/15 02:22:41;;;;;;;10.25;9.35;;;;;;;15.14;89.34375;95058.34;;;;
2021/09/15 02:23:42;;;;;;;10.55;9.499999;;;;;;;15.02;89.66504;95044.56;;;;
2021/09/15 02:24:42;;;;;;;10.55;9.499999;;;;;;;15.02;89.66504;95044.56;;;;
2021/09/15 02:25:43;;;;;;;10.55;9.499999;;;;;;;15.02;89.66504;95044.56;;;;
2021/09/15 02:26:43;;;;;;;10.55;9.499999;;;;;;;15.02;89.66504;95044.56;;;;
2021/09/15 02:27:44;;;;;;;10.55;9.499999;;;;;;;15.02;89.66504;95044.56;;;;
2021/09/15 02:28:44;;;;;;;10.55;9.499999;;;;;;;15.02;89.66504;95044.56;;;;
2021/09/15 02:29:45;;;;;;;10.55;9.499999;;;;;;;15.02;89.66504;95044.56;;;;
2021/09/15 02:30:45;;;;;;;10.55;9.499999;;;;;;;15.02;89.66504;95044.56;;;;
2021/09/15 02:31:46;;;;;;;10.55;9.499999;;;;;;;15.02;89.66504;95044.56;;;;
2021/09/15 02:32:46;;;;;;;10.55;9.499999;;;;;;;15.02;89.66504;95044.56;;;;
2021/09/15 02:33:47;;;;;;;10.8;9.799999;;;;;;;14.82;90.0127;95046.28;;;;
2021/09/15 02:34:47;;;;;;;10.8;9.799999;;;;;;;14.82;90.0127;95046.28;;;;
2021/09/15 02:35:48;;;;;;;10.8;9.799999;;;;;;;14.82;90.0127;95046.28;;;;
2021/09/15 02:36:48;;;;;;;10.8;9.799999;;;;;;;14.82;90.0127;95046.28;;;;
2021/09/15 02:37:49;;;;;;;10.8;9.799999;;;;;;;14.82;90.0127;95046.28;;;;
2021/09/15 02:38:49;;;;;;;10.8;9.799999;;;;;;;14.82;90.0127;95046.28;;;;
2021/09/15 02:39:51;;;;;;;10.8;9.799999;;;;;;;14.82;90.0127;95046.28;;;;
2021/09/15 02:40:51;;;;;;;10.8;9.799999;;;;;;;14.82;90.0127;95046.28;;;;
2021/09/15 02:41:53;;;;;;;10.8;9.799999;;;;;;;14.82;90.0127;95046.28;;;;
2021/09/15 02:42:53;;;;;;;10.8;9.799999;;;;;;;14.82;90.0127;95046.28;;;;
2021/09/15 02:43:54;;;;;;;10.8;9.799999;;;;;;;14.82;90.0127;95046.28;;;;
2021/09/15 02:44:54;;;;;;;10.65;9.550001;;;;;;;14.64;90.59961;95034.55;;;;
2021/09/15 02:45:55;;;;;;;10.65;9.550001;;;;;;;14.64;90.59961;95034.55;;;;
2021/09/15 02:46:55;;;;;;;10.65;9.550001;;;;;;;14.64;90.59961;95034.55;;;;
2021/09/15 02:47:56;;;;;;;10.65;9.550001;;;;;;;14.64;90.59961;95034.55;;;;
2021/09/15 02:48:56;;;;;;;10.65;9.550001;;;;;;;14.64;90.59961;95034.55;;;;
2021/09/15 02:49:57;;;;;;;10.65;9.550001;;;;;;;14.64;90.59961;95034.55;;;;
2021/09/15 02:50:57;;;;;;;10.65;9.550001;;;;;;;14.64;90.59961;95034.55;;;;
2021/09/15 02:51:58;;;;;;;10.65;9.550001;;;;;;;14.64;90.59961;95034.55;;;;
2021/09/15 02:52:58;;;;;;;10.65;9.550001;;;;;;;14.64;90.59961;95034.55;;;;
2021/09/15 02:53:59;;;;;;;10.65;9.550001;;;;;;;14.64;90.59961;95034.55;;;;
2021/09/15 02:54:59;;;;;;;10.05;9.050001;;;;;;;14.51;91.05566;95037.37;;;;
2021/09/15 02:56:00;;;;;;;10.05;9.050001;;;;;;;14.51;91.05566;95037.37;;;;
2021/09/15 02:57:00;;;;;;;10.05;9.050001;;;;;;;14.51;91.05566;95037.37;;;;
2021/09/15 02:58:03;;;;;;;10.05;9.050001;;;;;;;14.51;91.05566;95037.37;;;;
2021/09/15 02:59:04;;;;;;;10.05;9.050001;;;;;;;14.51;91.05566;95037.37;;;;
2021/09/15 03:00:04;;;;;;;10.05;9.050001;;;;;;;14.51;91.05566;95037.37;;;;
2021/09/15 03:01:06;;;;;;;10.05;9.050001;;;;;;;14.51;91.05566;95037.37;;;;
2021/09/15 03:02:07;;;;;;;10.05;9.050001;;;;;;;14.51;91.05566;95037.37;;;;
2021/09/15 03:03:07;;;;;;;10.05;9.050001;;;;;;;14.51;91.05566;95037.37;;;;
2021/09/15 03:04:08;;;;;;;10.05;9.050001;;;;;;;14.51;91.05566;95037.37;;;;
2021/09/15 03:05:08;;;;;;;10.05;9.050001;;;;;;;14.51;91.05566;95037.37;;;;
2021/09/15 03:06:09;;;;;;;10.6;9.450002;;;;;;;14.42;91.44434;95040.73;;;;
2021/09/15 03:07:10;;;;;;;10.6;9.450002;;;;;;;14.42;91.44434;95040.73;;;;
2021/09/15 03:08:10;;;;;;;10.6;9.450002;;;;;;;14.42;91.44434;95040.73;;;;
2021/09/15 03:09:11;;;;;;;10.6;9.450002;;;;;;;14.42;91.44434;95040.73;;;;
2021/09/15 03:10:11;;;;;;;10.6;9.450002;;;;;;;14.42;91.44434;95040.73;;;;
2021/09/15 03:11:12;;;;;;;10.6;9.450002;;;;;;;14.42;91.44434;95040.73;;;;
2021/09/15 03:12:12;;;;;;;10.6;9.450002;;;;;;;14.42;91.44434;95040.73;;;;
2021/09/15 03:13:13;;;;;;;10.6;9.450002;;;;;;;14.42;91.44434;95040.73;;;;
2021/09/15 03:14:13;;;;;;;10.6;9.450002;;;;;;;14.42;91.44434;95040.73;;;;
2021/09/15 03:15:14;;;;;;;10.6;9.450002;;;;;;;14.42;91.44434;95040.73;;;;
2021/09/15 03:16:14;;;;;;;10.6;9.450002;;;;;;;14.42;91.44434;95040.73;;;;
2021/09/15 03:17:15;;;;;;;10.6;9.5;;;;;;;14.42;91.62695;95052.12;;;;
2021/09/15 03:18:16;;;;;;;10.6;9.5;;;;;;;14.42;91.62695;95052.12;;;;
2021/09/15 03:19:16;;;;;;;10.6;9.5;;;;;;;14.42;91.62695;95052.12;;;;
2021/09/15 03:20:17;;;;;;;10.6;9.5;;;;;;;14.42;91.62695;95052.12;;;;
2021/09/15 03:21:17;;;;;;;10.6;9.5;;;;;;;14.42;91.62695;95052.12;;;;
2021/09/15 03:22:18;;;;;;;10.6;9.5;;;;;;;14.42;91.62695;95052.12;;;;
2021/09/15 03:23:18;;;;;;;10.6;9.5;;;;;;;14.42;91.62695;95052.12;;;;
2021/09/15 03:24:19;;;;;;;10.6;9.5;;;;;;;14.42;91.62695;95052.12;;;;
2021/09/15 03:25:19;;;;;;;10.6;9.5;;;;;;;14.42;91.62695;95052.12;;;;
2021/09/15 03:26:20;;;;;;;10.6;9.5;;;;;;;14.42;91.62695;95052.12;;;;
2021/09/15 03:27:20;;;;;;;10.4;9.25;;;;;;;14.33;91.82227;95036.06;;;;
2021/09/15 03:28:21;;;;;;;10.4;9.25;;;;;;;14.33;91.82227;95036.06;;;;
2021/09/15 03:29:21;;;;;;;10.4;9.25;;;;;;;14.33;91.82227;95036.06;;;;
2021/09/15 03:30:22;;;;;;;10.4;9.25;;;;;;;14.33;91.82227;95036.06;;;;
2021/09/15 03:31:22;;;;;;;10.4;9.25;;;;;;;14.33;91.82227;95036.06;;;;
2021/09/15 03:32:23;;;;;;;10.4;9.25;;;;;;;14.33;91.82227;95036.06;;;;
2021/09/15 03:33:23;;;;;;;10.4;9.25;;;;;;;14.33;91.82227;95036.06;;;;
2021/09/15 03:34:24;;;;;;;10.4;9.25;;;;;;;14.33;91.82227;95036.06;;;;
2021/09/15 03:35:24;;;;;;;10.4;9.25;;;;;;;14.33;91.82227;95036.06;;;;
2021/09/15 03:36:25;;;;;;;10.4;9.25;;;;;;;14.33;91.82227;95036.06;;;;
2021/09/15 03:37:25;;;;;;;10.4;9.25;;;;;;;14.33;91.82227;95036.06;;;;
2021/09/15 03:38:26;;;;;;;10.6;9.5;;;;;;;14.26;92.22949;95040.8;;;;
2021/09/15 03:39:26;;;;;;;10.6;9.5;;;;;;;14.26;92.22949;95040.8;;;;
2021/09/15 03:40:27;;;;;;;10.6;9.5;;;;;;;14.26;92.22949;95040.8;;;;
2021/09/15 03:41:27;;;;;;;10.6;9.5;;;;;;;14.26;92.22949;95040.8;;;;
2021/09/15 03:42:28;;;;;;;10.6;9.5;;;;;;;14.26;92.22949;95040.8;;;;
2021/09/15 03:43:28;;;;;;;10.6;9.5;;;;;;;14.26;92.22949;95040.8;;;;
2021/09/15 03:44:29;;;;;;;10.6;9.5;;;;;;;14.26;92.22949;95040.8;;;;
2021/09/15 03:45:29;;;;;;;10.6;9.5;;;;;;;14.26;92.22949;95040.8;;;;
2021/09/15 03:46:30;;;;;;;10.6;9.5;;;;;;;14.26;92.22949;95040.8;;;;
2021/09/15 03:47:31;;;;;;;10.6;9.5;;;;;;;14.26;92.22949;95040.8;;;;
2021/09/15 03:48:31;;;;;;;10.85;9.749999;;;;;;;14.21;92.50781;95024.43;;;;
2021/09/15 03:49:32;;;;;;;10.85;9.749999;;;;;;;14.21;92.50781;95024.43;;;;
2021/09/15 03:50:33;;;;;;;10.85;9.749999;;;;;;;14.21;92.50781;95024.43;;;;
2021/09/15 03:51:33;;;;;;;10.85;9.749999;;;;;;;14.21;92.50781;95024.43;;;;
2021/09/15 03:52:34;;;;;;;10.85;9.749999;;;;;;;14.21;92.50781;95024.43;;;;
2021/09/15 03:53:34;;;;;;;10.85;9.749999;;;;;;;14.21;92.50781;95024.43;;;;
2021/09/15 03:54:35;;;;;;;10.85;9.749999;;;;;;;14.21;92.50781;95024.43;;;;
2021/09/15 03:55:36;;;;;;;10.85;9.749999;;;;;;;14.21;92.50781;95024.43;;;;
2021/09/15 03:56:36;;;;;;;10.85;9.749999;;;;;;;14.21;92.50781;95024.43;;;;
2021/09/15 03:57:37;;;;;;;10.85;9.749999;;;;;;;14.21;92.50781;95024.43;;;;
2021/09/15 03:58:38;;;;;;;10.85;9.749999;;;;;;;14.21;92.50781;95024.43;;;;
2021/09/15 03:59:38;;;;;;;10.25;9.249999;;;;;;;14.23;92.61816;95012.34;;;;
2021/09/15 04:00:39;;;;;;;10.25;9.249999;;;;;;;14.23;92.61816;95012.34;;;;
2021/09/15 04:01:39;;;;;;;10.25;9.249999;;;;;;;14.23;92.61816;95012.34;;;;
2021/09/15 04:02:40;;;;;;;10.25;9.249999;;;;;;;14.23;92.61816;95012.34;;;;
2021/09/15 04:03:40;;;;;;;10.25;9.249999;;;;;;;14.23;92.61816;95012.34;;;;
2021/09/15 04:04:41;;;;;;;10.25;9.249999;;;;;;;14.23;92.61816;95012.34;;;;
2021/09/15 04:05:41;;;;;;;10.25;9.249999;;;;;;;14.23;92.61816;95012.34;;;;
2021/09/15 04:06:42;;;;;;;10.25;9.249999;;;;;;;14.23;92.61816;95012.34;;;;
2021/09/15 04:07:43;;;;;;;10.25;9.249999;;;;;;;14.23;92.61816;95012.34;;;;
2021/09/15 04:08:43;;;;;;;10.25;9.249999;;;;;;;14.23;92.61816;95012.34;;;;
2021/09/15 04:09:43;;;;;;;10.65;9.65;;;;;;;14.15;92.7959;95001.48;;;;
2021/09/15 04:10:44;;;;;;;10.65;9.65;;;;;;;14.15;92.7959;95001.48;;;;
2021/09/15 04:11:44;;;;;;;10.65;9.65;;;;;;;14.15;92.7959;95001.48;;;;
2021/09/15 04:12:45;;;;;;;10.65;9.65;;;;;;;14.15;92.7959;95001.48;;;;
2021/09/15 04:13:45;;;;;;;10.65;9.65;;;;;;;14.15;92.7959;95001.48;;;;
2021/09/15 04:14:46;;;;;;;10.65;9.65;;;;;;;14.15;92.7959;95001.48;;;;
2021/09/15 04:15:46;;;;;;;10.65;9.65;;;;;;;14.15;92.7959;95001.48;;;;
2021/09/15 04:16:47;;;;;;;10.65;9.65;;;;;;;14.15;92.7959;95001.48;;;;
2021/09/15 04:17:47;;;;;;;10.65;9.65;;;;;;;14.15;92.7959;95001.48;;;;
2021/09/15 04:18:48;;;;;;;10.65;9.65;;;;;;;14.15;92.7959;95001.48;;;;
2021/09/15 04:19:48;;;;;;;10.65;9.65;;;;;;;14.15;92.7959;95001.48;;;;
2021/09/15 04:20:49;;;;;;;12.3;10.2;;;;;;;14.06;93.28027;95003.59;;;;
2021/09/15 04:21:50;;;;;;;12.3;10.2;;;;;;;14.06;93.28027;95003.59;;;;
2021/09/15 04:22:50;;;;;;;12.3;10.2;;;;;;;14.06;93.28027;95003.59;;;;
2021/09/15 04:24:08;;;;;;;12.3;10.2;;;;;;;14.06;93.28027;95003.59;;;;
2021/09/15 04:33:37;;;;;;;10.4;9.5;;;;;;;14.07;93.60352;95013.78;;;;
2021/09/15 04:34:37;;;;;;;10.4;9.5;;;;;;;14.07;93.60352;95013.78;;;;
2021/09/15 04:35:38;;;;;;;10.4;9.5;;;;;;;14.07;93.60352;95013.78;;;;
2021/09/15 04:36:38;;;;;;;10.4;9.5;;;;;;;14.07;93.60352;95013.78;;;;
2021/09/15 04:37:39;;;;;;;10.4;9.5;;;;;;;14.07;93.60352;95013.78;;;;
2021/09/15 04:38:39;;;;;;;10.4;9.5;;;;;;;14.07;93.60352;95013.78;;;;
2021/09/15 04:39:40;;;;;;;10.4;9.5;;;;;;;14.07;93.60352;95013.78;;;;
2021/09/15 04:40:40;;;;;;;10.4;9.5;;;;;;;14.07;93.60352;95013.78;;;;
2021/09/15 04:41:41;;;;;;;12.1;10.25;;;;;;;14.03;93.93945;95015.37;;;;
2021/09/15 04:42:41;;;;;;;12.1;10.25;;;;;;;14.03;93.93945;95015.37;;;;
2021/09/15 04:43:42;;;;;;;12.1;10.25;;;;;;;14.03;93.93945;95015.37;;;;
2021/09/15 04:44:42;;;;;;;12.1;10.25;;;;;;;14.03;93.93945;95015.37;;;;
2021/09/15 04:45:43;;;;;;;12.1;10.25;;;;;;;14.03;93.93945;95015.37;;;;
2021/09/15 04:46:43;;;;;;;12.1;10.25;;;;;;;14.03;93.93945;95015.37;;;;
2021/09/15 04:47:44;;;;;;;12.1;10.25;;;;;;;14.03;93.93945;95015.37;;;;
2021/09/15 04:48:44;;;;;;;12.1;10.25;;;;;;;14.03;93.93945;95015.37;;;;
2021/09/15 04:49:45;;;;;;;12.1;10.25;;;;;;;14.03;93.93945;95015.37;;;;
2021/09/15 04:50:45;;;;;;;12.1;10.25;;;;;;;14.03;93.93945;95015.37;;;;
2021/09/15 04:51:46;;;;;;;12.1;10.25;;;;;;;14.03;93.93945;95015.37;;;;
2021/09/15 04:52:46;;;;;;;12.1;10.25;;;;;;;14.03;93.93945;95015.37;;;;
2021/09/15 04:53:46;;;;;;;12.1;10.25;;;;;;;14.03;93.93945;95015.37;;;;
2021/09/15 04:54:47;;;;;;;12.1;10.25;;;;;;;14.03;93.93945;95015.37;;;;
2021/09/15 04:55:47;;;;;;;12.1;10.25;;;;;;;14.03;93.93945;95015.37;;;;
2021/09/15 04:56:48;;;;;;;12.1;10.25;;;;;;;14.03;93.93945;95015.37;;;;
2021/09/15 04:57:48;;;;;;;12.1;10.25;;;;;;;14.03;93.93945;95015.37;;;;
2021/09/15 04:58:49;;;;;;;12.1;10.25;;;;;;;14.03;93.93945;95015.37;;;;
2021/09/15 04:59:49;;;;;;;12.1;10.25;;;;;;;14.03;93.93945;95015.37;;;;
2021/09/15 05:00:50;;;;;;;12.1;10.25;;;;;;;14.03;93.93945;95015.37;;;;
2021/09/15 05:01:50;;;;;;;12.1;10.25;;;;;;;14.03;93.93945;95015.37;;;;
2021/09/15 05:02:51;;;;;;;12.1;10.25;;;;;;;14.03;93.93945;95015.37;;;;
2021/09/15 05:03:51;;;;;;;10.6;9.55;;;;;;;14.48;94.47559;95034.22;;;;
2021/09/15 05:04:52;;;;;;;10.6;9.55;;;;;;;14.48;94.47559;95034.22;;;;
2021/09/15 05:05:52;;;;;;;10.6;9.55;;;;;;;14.48;94.47559;95034.22;;;;
2021/09/15 05:06:55;;;;;;;10.6;9.55;;;;;;;14.48;94.47559;95034.22;;;;
2021/09/15 05:07:55;;;;;;;10.6;9.55;;;;;;;14.48;94.47559;95034.22;;;;
2021/09/15 05:08:56;;;;;;;10.6;9.55;;;;;;;14.48;94.47559;95034.22;;;;
2021/09/15 05:09:56;;;;;;;10.6;9.55;;;;;;;14.48;94.47559;95034.22;;;;
2021/09/15 05:10:57;;;;;;;10.6;9.55;;;;;;;14.48;94.47559;95034.22;;;;
2021/09/15 05:11:57;;;;;;;10.6;9.55;;;;;;;14.48;94.47559;95034.22;;;;
2021/09/15 05:12:57;;;;;;;10.6;9.55;;;;;;;14.48;94.47559;95034.22;;;;
2021/09/15 05:13:58;;;;;;;9.950002;8.950002;;;;;;;14.73;94.5918;95031.58;;;;
2021/09/15 05:14:58;;;;;;;9.950002;8.950002;;;;;;;14.73;94.5918;95031.58;;;;
2021/09/15 05:15:59;;;;;;;9.950002;8.950002;;;;;;;14.73;94.5918;95031.58;;;;
2021/09/15 05:16:59;;;;;;;9.950002;8.950002;;;;;;;14.73;94.5918;95031.58;;;;
2021/09/15 05:18:00;;;;;;;9.950002;8.950002;;;;;;;14.73;94.5918;95031.58;;;;
2021/09/15 05:19:00;;;;;;;9.950002;8.950002;;;;;;;14.73;94.5918;95031.58;;;;
2021/09/15 05:20:01;;;;;;;9.950002;8.950002;;;;;;;14.73;94.5918;95031.58;;;;
2021/09/15 05:21:02;;;;;;;9.950002;8.950002;;;;;;;14.73;94.5918;95031.58;;;;
2021/09/15 05:22:03;;;;;;;9.950002;8.950002;;;;;;;14.73;94.5918;95031.58;;;;
2021/09/15 05:23:03;;;;;;;9.950002;8.950002;;;;;;;14.73;94.5918;95031.58;;;;
2021/09/15 05:24:04;;;;;;;9.950002;8.950002;;;;;;;14.73;94.5918;95031.58;;;;
2021/09/15 05:25:04;;;;;;;10.4;9.249999;;;;;;;14.93;94.54883;95028.13;;;;
2021/09/15 05:26:06;;;;;;;10.4;9.249999;;;;;;;14.93;94.54883;95028.13;;;;
2021/09/15 05:27:06;;;;;;;10.4;9.249999;;;;;;;14.93;94.54883;95028.13;;;;
2021/09/15 05:28:07;;;;;;;10.4;9.249999;;;;;;;14.93;94.54883;95028.13;;;;
2021/09/15 05:29:07;;;;;;;10.4;9.249999;;;;;;;14.93;94.54883;95028.13;;;;
2021/09/15 05:30:08;;;;;;;10.4;9.249999;;;;;;;14.93;94.54883;95028.13;;;;
2021/09/15 05:31:10;;;;;;;10.4;9.249999;;;;;;;14.93;94.54883;95028.13;;;;
2021/09/15 05:32:12;;;;;;;10.4;9.249999;;;;;;;14.93;94.54883;95028.13;;;;
2021/09/15 05:33:12;;;;;;;10.4;9.249999;;;;;;;14.93;94.54883;95028.13;;;;
2021/09/15 05:34:13;;;;;;;10.4;9.249999;;;;;;;14.93;94.54883;95028.13;;;;
2021/09/15 05:35:14;;;;;;;10.6;9.6;;;;;;;15.15;94.62891;95031.4;;;;
2021/09/15 05:36:14;;;;;;;10.6;9.6;;;;;;;15.15;94.62891;95031.4;;;;
2021/09/15 05:37:15;;;;;;;10.6;9.6;;;;;;;15.15;94.62891;95031.4;;;;
2021/09/15 05:38:18;;;;;;;10.6;9.6;;;;;;;15.15;94.62891;95031.4;;;;
2021/09/15 05:39:18;;;;;;;10.6;9.6;;;;;;;15.15;94.62891;95031.4;;;;
2021/09/15 05:40:19;;;;;;;10.6;9.6;;;;;;;15.15;94.62891;95031.4;;;;
2021/09/15 05:41:19;;;;;;;10.6;9.6;;;;;;;15.15;94.62891;95031.4;;;;
2021/09/15 05:42:19;;;;;;;10.6;9.6;;;;;;;15.15;94.62891;95031.4;;;;